Longswamp, Pennsylvania
Current Conditions -  °F | °C
As of 3:55 AM on Friday 24 Oct 2014 (Local Time) from KXLL Reporting Station
Overcast Overcast  
Wind Chill: 54°   Ceiling: 2600
Heat Index: 54°   Visibility: 10mi
Dew Point: 45°   Wind: 9mph
Humidity: 72%   Direction: 340°NNW
Pressure: 29.86"   Gusts: 17mph
Location:  40.4939°N, 75.6842°W
Report Text: KXLL 240755Z AUTO 34008G15KT 10SM OVC026 12/07 A2986 RMK AO2
Loading
Personal Weather Stations






























Interactive Weather Map New forecast layout! Learn more

10-Day Weather Forecast

Advertisements
Track Severe Weather on mobile